Terminal Aerodrome Forecast
Issued by NWS Billings, MT

Home | Current Version | Previous Version | Text Only | Print | Product List | Glossary On
Versions: 1 2 3 4 5 6 7 8 9 10 11 12 13 14 15 16 17 18 19 20
000
FTUS45 KBYZ 311959 AAA
TAFMLS
TAF AMD
KMLS 311959Z 3120/0118 31018G33KT P6SM -SHRA SCT025 BKN050 OVC080
     FM010100 31018KT P6SM SCT025 BKN050 BKN200
     FM010300 28009KT P6SM FEW025 SCT050 SCT200=

USA.gov is the U.S. government's official web portal to all federal, state and local government web resources and services.